Time;durP1;ratioP1;P1;durP2;ratioP2;P2;SDS_P1;SDS_P2;PMS_P1;PMS_P2;Temp;Humidity;BMP_temperature;BMP_pressure;BME280_temperature;BME280_humidity;BME280_pressure;Samples;Min_cycle;Max_cycle;Signal;HPM_P1;HPM_P2
2020/12/13 00:01:54;;;;;;;6.75;6.05;;;5.60;99.90;;;;;;4985119;28;20894;-76
2020/12/13 00:04:20;;;;;;;5.15;4.65;;;5.60;99.90;;;;;;4985548;28;20207;-74
2020/12/13 00:06:47;;;;;;;6.78;5.45;;;5.60;99.90;;;;;;4985627;28;20207;-73
2020/12/13 00:09:13;;;;;;;5.78;5.13;;;5.60;99.90;;;;;;4985714;28;20582;-73
2020/12/13 00:11:40;;;;;;;5.50;5.00;;;5.60;99.90;;;;;;4996004;28;20225;-73
2020/12/13 00:14:06;;;;;;;6.25;4.97;;;5.60;99.90;;;;;;5004943;28;20745;-74
2020/12/13 00:16:32;;;;;;;5.55;5.05;;;5.60;99.90;;;;;;5004978;28;20229;-74
2020/12/13 00:18:58;;;;;;;6.55;5.57;;;5.60;99.90;;;;;;5005174;28;20225;-74
2020/12/13 00:21:26;;;;;;;6.45;4.65;;;5.60;99.90;;;;;;5004313;28;20206;-75
2020/12/13 00:23:54;;;;;;;5.15;4.65;;;5.60;99.90;;;;;;5004012;28;20254;-75
2020/12/13 00:26:21;;;;;;;5.35;4.50;;;5.60;99.90;;;;;;5005019;28;20206;-75
2020/12/13 00:28:47;;;;;;;5.90;4.70;;;5.60;99.90;;;;;;5004294;28;20283;-75
2020/12/13 00:31:14;;;;;;;7.93;5.50;;;5.60;99.90;;;;;;5004835;28;20230;-75
2020/12/13 00:33:41;;;;;;;5.05;4.55;;;5.70;99.90;;;;;;5003863;28;20913;-75
2020/12/13 00:36:08;;;;;;;5.47;4.97;;;5.60;99.90;;;;;;5004350;28;20206;-74
2020/12/13 00:38:34;;;;;;;5.70;4.50;;;5.60;99.90;;;;;;5004976;28;20234;-74
2020/12/13 00:41:01;;;;;;;5.45;4.95;;;5.60;99.90;;;;;;4986847;28;20203;-74
2020/12/13 00:43:27;;;;;;;6.30;4.15;;;5.60;99.90;;;;;;4983771;28;20223;-76
2020/12/13 00:45:53;;;;;;;4.30;3.90;;;5.60;99.90;;;;;;4984004;28;20211;-75
2020/12/13 00:48:19;;;;;;;5.13;4.63;;;5.60;99.90;;;;;;4983855;28;20203;-75
2020/12/13 00:50:46;;;;;;;5.07;4.55;;;5.60;99.90;;;;;;4984447;28;20215;-76
2020/12/13 00:53:12;;;;;;;4.60;4.20;;;5.50;99.90;;;;;;4984510;28;20227;-76
2020/12/13 00:55:38;;;;;;;5.22;3.97;;;5.50;99.90;;;;;;4984564;28;20219;-76
2020/12/13 00:58:05;;;;;;;4.60;4.03;;;5.50;99.90;;;;;;4984309;28;20211;-77
2020/12/13 01:00:32;;;;;;;5.07;4.03;;;5.50;99.90;;;;;;4984997;28;20233;-77
2020/12/13 01:03:00;;;;;;;5.72;5.05;;;5.50;99.90;;;;;;4984088;28;20314;-76
2020/12/13 01:05:26;;;;;;;4.63;4.20;;;5.50;99.90;;;;;;4984580;28;20536;-76
2020/12/13 01:07:53;;;;;;;4.70;4.20;;;5.60;99.90;;;;;;4984492;28;20211;-76
2020/12/13 01:10:19;;;;;;;5.85;4.00;;;5.60;99.90;;;;;;4984596;28;20218;-76
2020/12/13 01:12:45;;;;;;;5.97;4.00;;;5.50;99.90;;;;;;4983621;28;20707;-76
2020/12/13 01:15:13;;;;;;;4.20;3.80;;;5.60;99.90;;;;;;4986935;28;20206;-76
2020/12/13 01:17:39;;;;;;;3.88;3.58;;;5.50;99.90;;;;;;4986377;28;20219;-76
2020/12/13 01:20:05;;;;;;;3.78;3.47;;;5.60;99.90;;;;;;4986461;28;20249;-76
2020/12/13 01:22:36;;;;;;;4.00;3.60;;;5.60;99.90;;;;;;4985641;28;20227;-76
2020/12/13 01:25:02;;;;;;;3.58;3.28;;;5.60;99.90;;;;;;4986721;28;20573;-76
2020/12/13 01:27:28;;;;;;;3.60;3.30;;;5.60;99.90;;;;;;4986312;28;20222;-76
2020/12/13 01:29:54;;;;;;;4.57;3.42;;;5.60;99.90;;;;;;4985899;28;20202;-76
2020/12/13 01:32:21;;;;;;;3.45;3.15;;;5.60;99.90;;;;;;4985641;28;20230;-76
2020/12/13 01:34:48;;;;;;;3.60;3.20;;;5.70;99.90;;;;;;4986052;28;20211;-76
2020/12/13 01:37:14;;;;;;;4.00;3.67;;;5.70;99.90;;;;;;4986521;28;20210;-76
2020/12/13 01:39:40;;;;;;;3.45;3.10;;;5.70;99.90;;;;;;4986422;28;20207;-76
2020/12/13 01:42:06;;;;;;;4.20;3.80;;;5.70;99.90;;;;;;4985840;28;20227;-76
2020/12/13 01:44:34;;;;;;;3.80;3.20;;;5.70;99.90;;;;;;4986576;28;20203;-76
2020/12/13 01:47:01;;;;;;;3.55;3.25;;;5.70;99.90;;;;;;4985954;28;20682;-76
2020/12/13 01:49:32;;;;;;;4.05;3.53;;;5.60;99.90;;;;;;4985985;28;20203;-75
2020/12/13 01:52:38;;;;;;;6.20;4.57;;;5.60;99.90;;;;;;4984811;28;20227;-74
2020/12/13 01:54:59;;;;;;;4.63;4.22;;;5.60;99.90;;;;;;4985598;28;20210;-74
2020/12/13 01:57:30;;;;;;;5.35;4.05;;;5.60;99.90;;;;;;4985907;28;20207;-74
2020/12/13 02:00:00;;;;;;;4.45;4.05;;;5.60;99.90;;;;;;4985700;28;20213;-73
2020/12/13 02:02:31;;;;;;;4.15;3.65;;;5.60;99.90;;;;;;4985235;28;20603;-73
2020/12/13 02:04:59;;;;;;;4.65;4.25;;;5.60;99.90;;;;;;4985364;28;20214;-74
2020/12/13 02:07:29;;;;;;;3.78;3.47;;;5.60;99.90;;;;;;4986860;28;20801;-74
2020/12/13 02:09:55;;;;;;;4.55;3.90;;;5.60;99.90;;;;;;4991922;28;20202;-75
2020/12/13 02:12:21;;;;;;;4.35;3.95;;;5.60;99.90;;;;;;4991380;28;20234;-74
2020/12/13 02:14:48;;;;;;;4.80;3.53;;;5.60;99.90;;;;;;4991968;28;20218;-74
2020/12/13 02:17:14;;;;;;;4.03;3.63;;;5.70;99.90;;;;;;4992190;28;20209;-74
2020/12/13 02:19:40;;;;;;;4.07;3.67;;;5.60;99.90;;;;;;4991942;28;20830;-75
2020/12/13 02:22:12;;;;;;;4.22;3.42;;;5.60;99.90;;;;;;4991545;28;20226;-75
2020/12/13 02:24:38;;;;;;;3.60;3.30;;;5.60;99.90;;;;;;4991981;28;20211;-75
2020/12/13 02:27:06;;;;;;;4.13;3.72;;;5.60;99.90;;;;;;4992293;28;20238;-75
2020/12/13 02:29:33;;;;;;;4.63;4.13;;;5.60;99.90;;;;;;5040808;23;20233;-73
2020/12/13 02:31:59;;;;;;;4.47;3.92;;;5.60;99.90;;;;;;5053522;28;20239;-73
2020/12/13 02:34:25;;;;;;;3.85;3.45;;;5.60;99.90;;;;;;5054788;28;20702;-74
2020/12/13 02:36:51;;;;;;;4.70;3.75;;;5.70;99.90;;;;;;5055225;28;20220;-73
2020/12/13 02:39:18;;;;;;;4.63;3.85;;;5.60;99.90;;;;;;5054879;28;20575;-74
2020/12/13 02:41:58;;;;;;;7.45;3.92;;;5.70;99.90;;;;;;5054736;28;20710;-74
2020/12/13 02:44:25;;;;;;;3.72;3.42;;;5.70;99.90;;;;;;5055047;28;20236;-74
2020/12/13 02:46:51;;;;;;;3.58;3.33;;;5.70;99.90;;;;;;5055465;28;20574;-74
2020/12/13 02:49:17;;;;;;;4.07;3.67;;;5.70;99.90;;;;;;5054927;28;20212;-74
2020/12/13 02:51:43;;;;;;;3.58;3.25;;;5.70;99.90;;;;;;5054664;28;20232;-71
2020/12/13 02:54:10;;;;;;;3.25;2.95;;;5.70;99.90;;;;;;5054972;28;20200;-71
2020/12/13 02:56:40;;;;;;;4.30;3.90;;;5.70;99.90;;;;;;5055014;28;20822;-74
2020/12/13 02:59:06;;;;;;;3.50;3.20;;;5.70;99.90;;;;;;5055049;28;20200;-73
2020/12/13 03:01:33;;;;;;;4.22;3.83;;;5.60;99.90;;;;;;5054485;28;20209;-72
2020/12/13 03:03:59;;;;;;;4.32;3.10;;;5.60;99.90;;;;;;5054745;28;20638;-73
2020/12/13 03:06:25;;;;;;;4.00;3.70;;;5.60;99.90;;;;;;5054925;28;20196;-73
2020/12/13 03:08:51;;;;;;;3.22;2.95;;;5.70;99.90;;;;;;5055057;28;20318;-73
2020/12/13 03:11:20;;;;;;;3.90;3.60;;;5.70;99.90;;;;;;5054750;28;20255;-75
2020/12/13 03:13:48;;;;;;;4.18;3.78;;;5.70;99.90;;;;;;5054391;28;20315;-74
2020/12/13 03:16:14;;;;;;;4.20;3.80;;;5.70;99.90;;;;;;5054831;28;20677;-74
2020/12/13 03:18:40;;;;;;;3.92;3.53;;;5.70;99.90;;;;;;5054584;28;20232;-75
2020/12/13 03:21:07;;;;;;;3.90;3.50;;;5.70;99.90;;;;;;5050822;28;20209;-74
2020/12/13 03:23:33;;;;;;;3.97;3.58;;;5.70;99.90;;;;;;5051396;28;20228;-74
2020/12/13 03:25:59;;;;;;;4.38;3.85;;;5.70;99.90;;;;;;5051738;28;20212;-74
2020/12/13 03:28:26;;;;;;;3.90;3.60;;;5.70;99.90;;;;;;5047190;28;20208;-74
2020/12/13 03:30:53;;;;;;;4.30;3.90;;;5.70;99.90;;;;;;5051708;28;20209;-73
2020/12/13 03:33:19;;;;;;;4.18;3.72;;;5.70;99.90;;;;;;5050932;28;20225;-73
2020/12/13 03:35:45;;;;;;;4.50;4.10;;;5.70;99.90;;;;;;5051644;28;20200;-74
2020/12/13 03:38:11;;;;;;;4.07;3.50;;;5.60;99.90;;;;;;5051650;28;20204;-74
2020/12/13 03:40:38;;;;;;;4.30;3.90;;;5.60;99.90;;;;;;5051778;28;20205;-72
2020/12/13 03:43:04;;;;;;;4.25;3.80;;;5.60;99.90;;;;;;5050882;28;20743;-72
2020/12/13 03:45:30;;;;;;;5.13;4.28;;;5.60;99.90;;;;;;5051486;28;20212;-72
2020/12/13 03:47:57;;;;;;;4.55;3.60;;;5.60;99.90;;;;;;5051441;28;20201;-73
2020/12/13 03:50:23;;;;;;;5.28;4.30;;;5.60;99.90;;;;;;5051721;28;20205;-73
2020/12/13 03:52:50;;;;;;;4.97;4.45;;;5.60;99.90;;;;;;5050777;28;20232;-72
2020/12/13 03:55:16;;;;;;;5.03;3.83;;;5.50;99.90;;;;;;5051752;28;20271;-73
2020/12/13 03:57:42;;;;;;;5.72;4.22;;;5.50;99.90;;;;;;5051623;28;20204;-73
2020/12/13 04:00:08;;;;;;;4.90;4.32;;;5.50;99.90;;;;;;5050956;28;20201;-73
2020/12/13 04:02:34;;;;;;;5.30;4.80;;;5.50;99.90;;;;;;5050765;28;20225;-72
2020/12/13 04:05:01;;;;;;;4.93;4.43;;;5.40;99.90;;;;;;5051070;28;20819;-73
2020/12/13 04:07:28;;;;;;;4.93;4.47;;;5.50;99.90;;;;;;5052203;28;20216;-75
2020/12/13 04:09:54;;;;;;;4.93;4.28;;;5.40;99.90;;;;;;5051251;28;20213;-73
2020/12/13 04:12:20;;;;;;;5.43;4.85;;;5.50;99.90;;;;;;5049887;28;20312;-72
2020/12/13 04:14:46;;;;;;;5.60;4.57;;;5.40;99.90;;;;;;5051052;28;20208;-71
2020/12/13 04:17:12;;;;;;;4.90;4.40;;;5.40;99.90;;;;;;5050493;28;20579;-72
2020/12/13 04:19:39;;;;;;;5.65;4.28;;;5.40;99.90;;;;;;5050517;28;20205;-73
2020/12/13 04:22:06;;;;;;;5.40;4.38;;;5.40;99.90;;;;;;5049563;28;20224;-73
2020/12/13 04:24:32;;;;;;;6.38;5.03;;;5.40;99.90;;;;;;5050436;28;20200;-73
2020/12/13 04:26:58;;;;;;;5.10;4.60;;;5.40;99.90;;;;;;5050442;28;20209;-72
2020/12/13 04:29:24;;;;;;;7.15;5.22;;;5.40;99.90;;;;;;5049721;28;20782;-72
2020/12/13 04:31:50;;;;;;;5.20;4.80;;;5.40;99.90;;;;;;5049203;28;20232;-72
2020/12/13 04:34:17;;;;;;;5.20;4.70;;;5.40;99.90;;;;;;5049846;28;20665;-73
2020/12/13 04:36:43;;;;;;;6.15;5.30;;;5.40;99.90;;;;;;5050152;28;20236;-73
2020/12/13 04:39:10;;;;;;;5.63;4.80;;;5.40;99.90;;;;;;5049906;28;20210;-74
2020/12/13 04:41:36;;;;;;;5.75;5.15;;;5.50;99.90;;;;;;5049732;28;20205;-73
2020/12/13 04:44:03;;;;;;;5.68;5.10;;;5.50;99.90;;;;;;5050083;28;20837;-73
2020/12/13 04:46:30;;;;;;;5.75;5.00;;;5.50;99.90;;;;;;5049868;28;20292;-73
2020/12/13 04:48:57;;;;;;;4.90;4.20;;;5.50;99.90;;;;;;5049969;28;20626;-73
2020/12/13 04:51:26;;;;;;;4.78;4.30;;;5.50;99.90;;;;;;5049177;28;20695;-72
2020/12/13 04:54:03;;;;;;;5.00;4.50;;;5.50;99.90;;;;;;5049325;28;20232;-73
2020/12/13 04:56:32;;;;;;;5.60;4.38;;;5.50;99.90;;;;;;5049423;28;20295;-73
2020/12/13 04:59:00;;;;;;;4.55;4.15;;;5.50;99.90;;;;;;5049693;28;20212;-73
2020/12/13 05:01:27;;;;;;;5.47;4.30;;;5.60;99.90;;;;;;5049139;28;20606;-73
2020/12/13 05:03:53;;;;;;;5.10;4.60;;;5.60;99.90;;;;;;5049062;28;20231;-74
2020/12/13 05:06:20;;;;;;;4.88;4.03;;;5.60;99.90;;;;;;5049186;28;20208;-72
2020/12/13 05:08:47;;;;;;;5.03;3.85;;;5.60;99.90;;;;;;5049444;28;20209;-72
2020/12/13 05:11:14;;;;;;;5.55;4.05;;;5.50;99.90;;;;;;5049148;28;20258;-73
2020/12/13 05:13:41;;;;;;;5.20;4.25;;;5.60;99.90;;;;;;5048643;28;20278;-71
2020/12/13 05:16:08;;;;;;;4.60;4.10;;;5.60;99.90;;;;;;5049119;28;20708;-70
2020/12/13 05:18:38;;;;;;;4.78;3.60;;;5.60;99.90;;;;;;5049624;28;20661;-72
2020/12/13 05:21:05;;;;;;;4.85;4.25;;;5.60;99.90;;;;;;5049377;28;20239;-71
2020/12/13 05:23:32;;;;;;;4.07;3.67;;;5.60;99.90;;;;;;5048675;28;20224;-71
2020/12/13 05:25:58;;;;;;;4.18;3.78;;;5.60;99.90;;;;;;5049129;28;20575;-73
2020/12/13 05:28:25;;;;;;;3.53;3.10;;;5.60;99.90;;;;;;5048997;28;20212;-73
2020/12/13 05:30:53;;;;;;;3.70;3.40;;;5.70;99.90;;;;;;5049267;28;20208;-72
2020/12/13 05:33:25;;;;;;;4.47;3.35;;;5.70;99.90;;;;;;5048515;28;20854;-72
2020/12/13 05:35:59;;;;;;;4.25;3.85;;;5.70;99.90;;;;;;5049408;28;20205;-73
2020/12/13 05:38:32;;;;;;;4.68;3.80;;;5.70;99.90;;;;;;5048958;28;20208;-73
2020/12/13 05:40:58;;;;;;;4.30;3.40;;;5.60;99.90;;;;;;5049059;28;20224;-73
2020/12/13 05:43:27;;;;;;;3.70;3.40;;;5.60;99.90;;;;;;5047988;28;20228;-71
2020/12/13 05:46:27;;;;;;;4.60;4.13;;;5.60;99.90;;;;;;5049659;28;20208;-72
2020/12/13 05:49:25;;;;;;;3.92;3.15;;;5.60;99.90;;;;;;5049197;28;20725;-73
2020/12/13 05:51:52;;;;;;;4.55;3.83;;;5.50;99.90;;;;;;5048256;28;20629;-72
2020/12/13 05:54:21;;;;;;;3.85;3.55;;;5.60;99.90;;;;;;5048599;28;20810;-72
2020/12/13 05:56:51;;;;;;;4.47;4.05;;;5.60;99.90;;;;;;5048969;28;20278;-72
2020/12/13 05:59:17;;;;;;;3.58;3.28;;;5.60;99.90;;;;;;5048225;28;20229;-72
2020/12/13 06:01:48;;;;;;;3.90;3.38;;;5.50;99.90;;;;;;5048110;28;20208;-72
2020/12/13 06:04:16;;;;;;;3.85;3.45;;;5.50;99.90;;;;;;5048399;28;20240;-72
2020/12/13 06:06:44;;;;;;;5.72;3.55;;;5.50;99.90;;;;;;5048681;28;20224;-72
2020/12/13 06:09:12;;;;;;;5.30;3.22;;;5.60;99.90;;;;;;5048591;28;20561;-72
2020/12/13 06:11:41;;;;;;;3.80;3.30;;;5.50;99.90;;;;;;5048082;28;20229;-72
2020/12/13 06:14:13;;;;;;;3.28;3.08;;;5.60;99.90;;;;;;5048477;28;20201;-73
2020/12/13 06:16:40;;;;;;;4.20;3.80;;;5.60;99.90;;;;;;5048534;28;20201;-72
2020/12/13 06:19:09;;;;;;;3.58;3.28;;;5.60;99.90;;;;;;5048666;28;20215;-72
2020/12/13 06:21:37;;;;;;;4.15;3.70;;;5.70;99.90;;;;;;5047968;28;20209;-73
2020/12/13 06:24:05;;;;;;;3.50;3.20;;;5.70;99.90;;;;;;5048786;28;20247;-74
2020/12/13 06:26:32;;;;;;;3.60;3.30;;;5.70;99.90;;;;;;5048956;28;20253;-74
2020/12/13 06:28:58;;;;;;;2.95;2.75;;;5.70;99.90;;;;;;5049103;28;20209;-72
2020/12/13 06:31:25;;;;;;;2.97;2.78;;;5.70;99.90;;;;;;5048720;28;20205;-72
2020/12/13 06:33:51;;;;;;;3.42;3.13;;;5.70;99.90;;;;;;5048274;28;20232;-75
2020/12/13 06:36:23;;;;;;;3.00;2.80;;;5.70;99.90;;;;;;5048752;28;20201;-75
2020/12/13 06:38:53;;;;;;;3.65;2.70;;;5.70;99.90;;;;;;5049163;28;20242;-74
2020/12/13 06:41:23;;;;;;;3.22;2.80;;;5.70;99.90;;;;;;5048632;28;20197;-74
2020/12/13 06:44:05;;;;;;;3.28;2.53;;;5.70;99.90;;;;;;5048253;28;20232;-75
2020/12/13 06:46:31;;;;;;;4.32;2.45;;;5.70;99.90;;;;;;5049298;28;20231;-74
2020/12/13 06:48:58;;;;;;;3.10;2.90;;;5.70;99.90;;;;;;5049012;28;20602;-75
2020/12/13 06:51:30;;;;;;;3.22;2.85;;;5.70;99.90;;;;;;5048805;28;20201;-75
2020/12/13 06:53:57;;;;;;;2.60;2.40;;;5.70;99.90;;;;;;5049263;28;20231;-75
2020/12/13 06:56:24;;;;;;;2.50;2.28;;;5.70;99.90;;;;;;5051958;28;20216;-75
2020/12/13 06:58:58;;;;;;;2.47;2.10;;;5.70;99.90;;;;;;5052236;28;20703;-75
2020/12/13 07:01:27;;;;;;;3.10;2.60;;;5.70;99.90;;;;;;5051946;28;20304;-75
2020/12/13 07:03:55;;;;;;;112.28;56.20;;;5.60;99.90;;;;;;5051686;28;20217;-75
2020/12/13 07:06:24;;;;;;;31.83;22.90;;;5.70;99.90;;;;;;5051894;28;20224;-75
2020/12/13 07:08:57;;;;;;;5.38;4.35;;;5.70;99.90;;;;;;5052117;28;20197;-74
2020/12/13 07:11:27;;;;;;;2.58;2.38;;;5.70;99.90;;;;;;5052047;28;20817;-74
2020/12/13 07:14:04;;;;;;;1.90;1.80;;;5.70;99.90;;;;;;5051384;28;20244;-73
2020/12/13 07:16:35;;;;;;;1.55;1.45;;;5.70;99.90;;;;;;5052218;28;20212;-76
2020/12/13 07:19:05;;;;;;;2.13;1.85;;;5.70;99.90;;;;;;5051919;28;20205;-73
2020/12/13 07:21:32;;;;;;;2.38;2.17;;;5.70;99.90;;;;;;5051791;28;20213;-74
2020/12/13 07:24:00;;;;;;;2.03;1.70;;;5.70;99.90;;;;;;5051172;28;20731;-74
2020/12/13 07:26:28;;;;;;;4.20;1.70;;;5.70;99.90;;;;;;5051221;28;20299;-74
2020/12/13 07:28:55;;;;;;;2.20;2.00;;;5.70;99.90;;;;;;5051573;28;20299;-74
2020/12/13 07:31:24;;;;;;;1.65;1.55;;;5.70;99.90;;;;;;5051232;28;20222;-73
2020/12/13 07:33:50;;;;;;;2.00;1.90;;;5.80;99.90;;;;;;5051043;28;20225;-74
2020/12/13 07:36:17;;;;;;;1.88;1.50;;;5.80;99.90;;;;;;5051270;28;20208;-74
2020/12/13 07:38:43;;;;;;;4.50;1.88;;;5.80;99.90;;;;;;5051536;28;20205;-73
2020/12/13 07:41:18;;;;;;;1.92;1.70;;;5.80;99.90;;;;;;5051081;28;20207;-74
2020/12/13 07:43:52;;;;;;;2.22;2.03;;;5.80;99.90;;;;;;5050931;28;20219;-73
2020/12/13 07:46:18;;;;;;;2.35;1.50;;;5.80;99.90;;;;;;5021423;28;20210;-73
2020/12/13 07:48:44;;;;;;;1.73;1.63;;;5.90;99.90;;;;;;5011758;28;20580;-74
2020/12/13 07:51:11;;;;;;;2.10;1.90;;;5.90;99.90;;;;;;5011507;28;20210;-73
2020/12/13 07:53:37;;;;;;;3.05;2.25;;;5.90;99.90;;;;;;5010892;28;20237;-73
2020/12/13 07:56:03;;;;;;;2.35;2.00;;;5.90;99.90;;;;;;5011507;28;20199;-73
2020/12/13 07:58:30;;;;;;;3.70;2.45;;;6.00;99.90;;;;;;5011428;28;20606;-72
2020/12/13 08:01:09;;;;;;;2.88;2.58;;;6.00;99.90;;;;;;5011493;28;20542;-74
2020/12/13 08:03:42;;;;;;;4.03;3.42;;;6.00;99.90;;;;;;5010981;28;20593;-73
2020/12/13 08:06:10;;;;;;;10.88;8.10;;;6.10;99.90;;;;;;5010921;28;20603;-74
2020/12/13 08:08:42;;;;;;;9.52;6.95;;;6.00;99.90;;;;;;5012569;28;20202;-74
2020/12/13 08:11:11;;;;;;;17.38;10.80;;;6.00;99.90;;;;;;5010886;28;20252;-74
2020/12/13 08:13:46;;;;;;;3.20;2.90;;;6.00;99.90;;;;;;5010704;28;20631;-74
2020/12/13 08:16:14;;;;;;;3.15;2.85;;;6.10;99.90;;;;;;5011198;28;20852;-74
2020/12/13 08:18:44;;;;;;;3.67;2.80;;;6.10;99.90;;;;;;5011173;28;20206;-73
2020/12/13 08:21:12;;;;;;;3.65;3.10;;;6.10;99.90;;;;;;5011290;28;20210;-77
2020/12/13 08:23:40;;;;;;;4.15;3.10;;;6.10;99.90;;;;;;5010319;28;20218;-74
2020/12/13 08:26:06;;;;;;;2.88;2.65;;;6.10;99.90;;;;;;5010318;28;20201;-73
2020/12/13 08:28:33;;;;;;;3.53;2.88;;;6.10;99.90;;;;;;5010540;28;20210;-72
2020/12/13 08:31:01;;;;;;;2.90;2.70;;;6.20;99.90;;;;;;5094111;23;20364;-73
2020/12/13 08:33:28;;;;;;;2.95;2.75;;;6.20;99.90;;;;;;5029849;28;20233;-76
2020/12/13 08:35:54;;;;;;;7.90;3.45;;;6.30;99.90;;;;;;5011586;28;20221;-76
2020/12/13 08:38:23;;;;;;;3.97;3.65;;;6.30;99.90;;;;;;5009853;28;20206;-76
2020/12/13 08:40:51;;;;;;;3.45;3.15;;;6.30;99.90;;;;;;5010061;28;20210;-76
2020/12/13 08:43:19;;;;;;;3.00;2.80;;;6.40;99.90;;;;;;5009935;28;20222;-76
2020/12/13 08:45:52;;;;;;;3.95;3.55;;;6.40;99.90;;;;;;5010225;28;20670;-76
2020/12/13 08:48:25;;;;;;;8.98;3.70;;;6.40;99.90;;;;;;5010394;28;20649;-76
2020/12/13 08:51:04;;;;;;;4.10;3.65;;;6.50;99.90;;;;;;5010463;28;20264;-76
2020/12/13 08:53:30;;;;;;;3.60;2.90;;;6.50;99.90;;;;;;5009272;28;20222;-77
2020/12/13 08:56:05;;;;;;;3.45;2.88;;;6.50;99.90;;;;;;5010356;28;20301;-76
2020/12/13 08:58:46;;;;;;;3.78;3.47;;;6.60;99.90;;;;;;5010104;28;20201;-77
2020/12/13 09:01:12;;;;;;;4.78;3.00;;;6.80;99.90;;;;;;5010754;28;20575;-76
2020/12/13 09:03:39;;;;;;;3.78;3.47;;;6.90;99.90;;;;;;5010438;28;20218;-77
2020/12/13 09:06:06;;;;;;;5.28;3.30;;;7.10;99.90;;;;;;5011324;28;20207;-76
2020/12/13 09:08:32;;;;;;;5.60;3.83;;;7.10;99.90;;;;;;5007057;28;20213;-75
2020/12/13 09:11:04;;;;;;;7.25;3.60;;;7.10;99.90;;;;;;5009178;28;20225;-77
2020/12/13 09:13:31;;;;;;;3.83;3.33;;;7.20;99.90;;;;;;5010171;28;20698;-77
2020/12/13 09:15:57;;;;;;;4.28;3.38;;;7.20;99.90;;;;;;5013234;28;20213;-75
2020/12/13 09:18:23;;;;;;;3.78;3.38;;;7.30;99.90;;;;;;5009990;28;20277;-76
2020/12/13 09:20:57;;;;;;;74.30;45.97;;;7.30;99.90;;;;;;5009725;28;20217;-77
2020/12/13 09:23:24;;;;;;;26.40;16.70;;;7.30;99.90;;;;;;5010994;28;20219;-77
2020/12/13 09:25:51;;;;;;;26.15;15.82;;;7.30;99.90;;;;;;5010911;28;20217;-76
2020/12/13 09:28:18;;;;;;;8.05;6.85;;;7.40;99.90;;;;;;5011275;28;20246;-77
2020/12/13 09:30:44;;;;;;;5.90;4.00;;;7.40;99.90;;;;;;5009623;28;20213;-74
2020/12/13 09:33:12;;;;;;;5.57;3.13;;;7.40;99.90;;;;;;5009251;28;20720;-76
2020/12/13 09:35:38;;;;;;;3.45;3.03;;;7.50;99.90;;;;;;5009282;28;20233;-76
2020/12/13 09:38:07;;;;;;;3.47;3.17;;;7.60;99.90;;;;;;5010046;28;20206;-75
2020/12/13 09:40:33;;;;;;;3.05;2.85;;;7.80;99.90;;;;;;4993525;28;20203;-77
2020/12/13 09:43:00;;;;;;;3.53;3.22;;;7.90;99.90;;;;;;4991092;28;20238;-77
2020/12/13 09:45:27;;;;;;;3.05;2.70;;;8.10;99.90;;;;;;4989914;28;20199;-77
2020/12/13 09:47:56;;;;;;;3.40;3.10;;;8.30;99.90;;;;;;4990308;28;20708;-76
2020/12/13 09:50:22;;;;;;;3.83;2.80;;;8.50;99.90;;;;;;4989766;28;20294;-76
2020/12/13 09:52:48;;;;;;;3.65;2.65;;;8.60;99.90;;;;;;4989160;28;20694;-76
2020/12/13 09:55:15;;;;;;;4.63;2.67;;;8.60;99.90;;;;;;4989745;28;20206;-76
2020/12/13 09:57:42;;;;;;;3.38;2.55;;;8.60;99.90;;;;;;4990185;28;20434;-76
2020/12/13 10:00:08;;;;;;;3.60;2.65;;;8.50;99.90;;;;;;4990319;28;20243;-76
2020/12/13 10:02:34;;;;;;;3.13;2.65;;;8.50;99.90;;;;;;4988832;28;20230;-76
2020/12/13 10:05:02;;;;;;;4.35;2.40;;;8.50;99.90;;;;;;4989854;28;20214;-76
2020/12/13 10:08:55;;;;;;;3.13;2.20;;;8.40;99.90;;;;;;4989015;28;20744;-75
2020/12/13 10:10:20;;;;;;;5.47;2.28;;;8.40;99.90;;;;;;4989215;28;20199;-76
2020/12/13 10:12:47;;;;;;;2.45;1.98;;;8.50;99.90;;;;;;4988393;28;20325;-76
2020/12/13 10:15:13;;;;;;;1.95;1.75;;;8.70;99.90;;;;;;4989422;28;20214;-75
2020/12/13 10:17:41;;;;;;;2.60;2.10;;;8.90;99.90;;;;;;4989484;28;20199;-76
2020/12/13 10:20:07;;;;;;;2.20;1.50;;;9.00;99.90;;;;;;4989210;28;20675;-77
2020/12/13 10:22:33;;;;;;;1.52;1.40;;;9.20;99.90;;;;;;4988956;28;20475;-76
2020/12/13 10:24:59;;;;;;;3.35;1.50;;;9.20;99.90;;;;;;4988063;28;20632;-76
2020/12/13 10:27:27;;;;;;;2.90;1.77;;;9.00;99.90;;;;;;4988821;28;20215;-75
2020/12/13 10:29:53;;;;;;;2.50;1.52;;;8.80;99.90;;;;;;4991798;28;20206;-75
2020/12/13 10:32:19;;;;;;;2.35;1.60;;;8.50;99.90;;;;;;4992177;28;20226;-76
2020/12/13 10:34:45;;;;;;;3.00;2.70;;;8.30;99.90;;;;;;4993216;28;20200;-76
2020/12/13 10:37:11;;;;;;;12.05;7.47;;;8.20;99.90;;;;;;4993013;28;20261;-75
2020/12/13 10:39:38;;;;;;;7.05;5.43;;;8.10;99.90;;;;;;4993295;28;20207;-75
2020/12/13 10:42:05;;;;;;;8.75;5.20;;;8.10;99.90;;;;;;4992638;28;20223;-76
2020/12/13 10:44:32;;;;;;;3.10;2.80;;;8.10;99.90;;;;;;4992912;28;20214;-75
2020/12/13 10:46:58;;;;;;;3.15;2.05;;;8.10;99.90;;;;;;4993461;28;20210;-74
2020/12/13 10:49:25;;;;;;;2.60;2.15;;;8.00;99.90;;;;;;4992539;28;20218;-76
2020/12/13 10:51:52;;;;;;;3.15;2.20;;;8.00;99.90;;;;;;4992416;28;20895;-75
2020/12/13 10:54:18;;;;;;;2.30;2.00;;;8.00;99.90;;;;;;4992797;28;20223;-76
2020/12/13 10:56:44;;;;;;;3.55;2.63;;;8.00;99.90;;;;;;4992803;28;20571;-75
2020/12/13 10:59:11;;;;;;;4.80;2.63;;;7.90;99.90;;;;;;5002979;28;20202;-75
2020/12/13 11:01:38;;;;;;;6.38;3.88;;;8.00;99.90;;;;;;5011565;28;20206;-74
2020/12/13 11:04:04;;;;;;;2.47;1.90;;;8.00;99.90;;;;;;5012416;28;20226;-75
2020/12/13 11:06:31;;;;;;;3.03;2.40;;;8.10;99.90;;;;;;5012590;28;20207;-73
2020/12/13 11:08:57;;;;;;;2.38;2.10;;;8.10;99.90;;;;;;5011882;28;20651;-73
2020/12/13 11:11:23;;;;;;;3.35;2.30;;;8.10;99.90;;;;;;5011995;28;20209;-73
2020/12/13 11:13:49;;;;;;;2.05;1.77;;;8.20;99.90;;;;;;4991559;28;20709;-73
2020/12/13 11:16:16;;;;;;;1.70;1.60;;;8.20;99.90;;;;;;4992117;28;20667;-74
2020/12/13 11:18:43;;;;;;;14.23;7.60;;;8.10;99.90;;;;;;4992614;28;20211;-74
2020/12/13 11:21:09;;;;;;;20.35;11.77;;;8.10;99.90;;;;;;4992303;28;20210;-74
2020/12/13 11:23:35;;;;;;;7.20;5.80;;;8.00;99.90;;;;;;4991823;28;20250;-74
2020/12/13 11:26:01;;;;;;;9.05;6.35;;;7.90;99.90;;;;;;4992105;28;20199;-73
2020/12/13 11:28:27;;;;;;;2.85;2.55;;;7.90;99.90;;;;;;4992339;28;20211;-74
2020/12/13 11:30:54;;;;;;;2.30;2.10;;;7.90;99.90;;;;;;4993133;28;20215;-77
2020/12/13 11:33:20;;;;;;;3.17;2.10;;;7.90;99.90;;;;;;4993193;28;20628;-74
2020/12/13 11:35:47;;;;;;;3.20;2.45;;;7.80;99.90;;;;;;4993202;28;20203;-76
2020/12/13 11:38:13;;;;;;;2.10;1.77;;;7.80;99.90;;;;;;4992269;28;20206;-76
2020/12/13 11:40:40;;;;;;;2.70;1.65;;;7.80;99.90;;;;;;4991240;28;20233;-76
2020/12/13 11:43:06;;;;;;;6.75;2.30;;;7.70;99.90;;;;;;4991373;28;20569;-76
2020/12/13 11:45:32;;;;;;;2.42;2.22;;;7.70;99.90;;;;;;4991618;28;20207;-76
2020/12/13 11:47:59;;;;;;;3.30;2.35;;;7.70;99.90;;;;;;4991887;28;20215;-76
2020/12/13 11:50:25;;;;;;;2.97;2.30;;;7.60;99.90;;;;;;4991700;28;20306;-76
2020/12/13 11:52:52;;;;;;;4.72;2.55;;;7.60;99.90;;;;;;4991424;28;20230;-76
2020/12/13 11:55:18;;;;;;;3.70;2.55;;;7.60;99.90;;;;;;4991947;28;20206;-76
2020/12/13 11:57:45;;;;;;;3.08;2.75;;;7.60;99.90;;;;;;4992142;28;20207;-76
2020/12/13 12:00:11;;;;;;;3.13;2.40;;;7.60;99.90;;;;;;4992043;28;20211;-77
2020/12/13 12:02:37;;;;;;;3.13;2.40;;;7.60;99.90;;;;;;4991014;28;20218;-77
2020/12/13 12:05:03;;;;;;;2.50;2.30;;;7.50;99.90;;;;;;4991642;28;20562;-76
2020/12/13 12:07:29;;;;;;;3.60;3.05;;;7.50;99.90;;;;;;4991127;28;20214;-77
2020/12/13 12:09:57;;;;;;;4.38;2.95;;;7.50;99.90;;;;;;4991780;28;20583;-77
2020/12/13 12:12:23;;;;;;;3.70;2.60;;;7.50;99.90;;;;;;4991152;28;20231;-77
2020/12/13 12:14:49;;;;;;;4.30;2.30;;;7.50;99.90;;;;;;4991539;28;20204;-76
2020/12/13 12:17:15;;;;;;;2.88;2.13;;;7.40;99.90;;;;;;4994029;28;20202;-77
2020/12/13 12:19:42;;;;;;;2.42;2.13;;;7.40;99.90;;;;;;4996177;28;20207;-77
2020/12/13 12:22:08;;;;;;;2.00;1.80;;;7.40;99.90;;;;;;4992138;28;20231;-77
2020/12/13 12:24:35;;;;;;;2.00;1.80;;;7.40;99.90;;;;;;4991225;28;20230;-77
2020/12/13 12:27:02;;;;;;;2.20;1.80;;;7.30;99.90;;;;;;4991617;28;20690;-76
2020/12/13 12:29:28;;;;;;;7.07;5.05;;;7.30;99.90;;;;;;4993479;28;20242;-77
2020/12/13 12:31:55;;;;;;;6.10;3.50;;;7.30;99.90;;;;;;4990570;28;20210;-77
2020/12/13 12:34:21;;;;;;;3.63;2.50;;;7.40;99.90;;;;;;4989484;28;20594;-76
2020/12/13 12:36:47;;;;;;;3.00;2.20;;;7.40;99.90;;;;;;4989671;28;20222;-76
2020/12/13 12:39:13;;;;;;;2.33;2.08;;;7.40;99.90;;;;;;4989600;28;20215;-77
2020/12/13 12:41:40;;;;;;;2.83;2.15;;;7.40;99.90;;;;;;4992605;28;20207;-77
2020/12/13 12:44:08;;;;;;;3.08;2.42;;;7.40;99.90;;;;;;4987049;28;20589;-77
2020/12/13 12:46:34;;;;;;;4.90;2.95;;;7.30;99.90;;;;;;4986912;28;20218;-81
2020/12/13 12:49:00;;;;;;;7.47;3.03;;;7.30;99.90;;;;;;4989659;28;20202;-78
2020/12/13 12:51:28;;;;;;;5.88;2.60;;;7.30;99.90;;;;;;4990242;28;20223;-79
2020/12/13 12:53:55;;;;;;;3.05;2.40;;;7.30;99.90;;;;;;4991411;28;20322;-79
2020/12/13 12:56:22;;;;;;;2.63;1.95;;;7.30;99.90;;;;;;4990914;28;20241;-78
2020/12/13 12:58:51;;;;;;;1.88;1.77;;;7.30;99.90;;;;;;4989049;28;20745;-76